sensor_id;sensor_type;location;lat;lon;timestamp;pressure;altitude;pressure_sealevel;temperature;humidity
56863;BME280;42746;49.976;20.182;2022-07-25T00:00:22;98429.81;;;17.33;73.34
56863;BME280;42746;49.976;20.182;2022-07-25T00:02:37;98425.22;;;17.30;75.05
56863;BME280;42746;49.976;20.182;2022-07-25T00:04:38;98427.44;;;17.26;76.57
56863;BME280;42746;49.976;20.182;2022-07-25T00:06:40;98427.13;;;17.24;77.27
56863;BME280;42746;49.976;20.182;2022-07-25T00:08:41;98424.25;;;17.18;77.67
56863;BME280;42746;49.976;20.182;2022-07-25T00:10:42;98428.44;;;17.14;78.83
56863;BME280;42746;49.976;20.182;2022-07-25T00:12:44;98420.75;;;17.09;79.74
56863;BME280;42746;49.976;20.182;2022-07-25T00:14:45;98419.41;;;17.04;80.58
56863;BME280;42746;49.976;20.182;2022-07-25T00:16:46;98425.16;;;17.00;80.98
56863;BME280;42746;49.976;20.182;2022-07-25T00:18:46;98422.38;;;17.00;80.86
56863;BME280;42746;49.976;20.182;2022-07-25T00:20:47;98424.56;;;16.96;81.04
56863;BME280;42746;49.976;20.182;2022-07-25T00:22:48;98426.09;;;16.97;81.07
56863;BME280;42746;49.976;20.182;2022-07-25T00:24:49;98427.03;;;16.94;81.47
56863;BME280;42746;49.976;20.182;2022-07-25T00:26:50;98424.75;;;16.93;81.69
56863;BME280;42746;49.976;20.182;2022-07-25T00:28:53;98426.16;;;16.88;82.13
56863;BME280;42746;49.976;20.182;2022-07-25T00:30:53;98421.28;;;16.83;82.20
56863;BME280;42746;49.976;20.182;2022-07-25T00:32:54;98423.09;;;16.77;83.72
56863;BME280;42746;49.976;20.182;2022-07-25T00:34:55;98423.63;;;16.66;84.02
56863;BME280;42746;49.976;20.182;2022-07-25T00:36:56;98426.03;;;16.49;84.47
56863;BME280;42746;49.976;20.182;2022-07-25T00:38:57;98418.13;;;16.33;85.18
56863;BME280;42746;49.976;20.182;2022-07-25T00:40:58;98416.47;;;16.17;85.85
56863;BME280;42746;49.976;20.182;2022-07-25T00:42:59;98417.72;;;16.06;86.88
56863;BME280;42746;49.976;20.182;2022-07-25T00:45:01;98421.31;;;15.98;87.27
56863;BME280;42746;49.976;20.182;2022-07-25T00:47:02;98420.09;;;15.89;88.78
56863;BME280;42746;49.976;20.182;2022-07-25T00:49:03;98421.97;;;15.83;89.59
56863;BME280;42746;49.976;20.182;2022-07-25T00:51:04;98424.59;;;15.78;91.45
56863;BME280;42746;49.976;20.182;2022-07-25T00:53:05;98422.09;;;15.70;92.68
56863;BME280;42746;49.976;20.182;2022-07-25T00:55:07;98418.88;;;15.63;94.18
56863;BME280;42746;49.976;20.182;2022-07-25T00:57:07;98417.84;;;15.51;94.76
56863;BME280;42746;49.976;20.182;2022-07-25T00:59:08;98415.22;;;15.47;94.16
56863;BME280;42746;49.976;20.182;2022-07-25T01:01:11;98410.16;;;15.46;94.46
56863;BME280;42746;49.976;20.182;2022-07-25T01:03:12;98413.38;;;15.44;95.15
56863;BME280;42746;49.976;20.182;2022-07-25T01:05:13;98405.22;;;15.41;95.89
56863;BME280;42746;49.976;20.182;2022-07-25T01:07:15;98410.00;;;15.31;96.24
56863;BME280;42746;49.976;20.182;2022-07-25T01:09:16;98409.09;;;15.25;96.24
56863;BME280;42746;49.976;20.182;2022-07-25T01:11:18;98407.41;;;15.18;96.65
56863;BME280;42746;49.976;20.182;2022-07-25T01:13:19;98402.31;;;15.17;96.52
56863;BME280;42746;49.976;20.182;2022-07-25T01:15:22;98393.56;;;15.18;96.00
56863;BME280;42746;49.976;20.182;2022-07-25T01:17:24;98400.16;;;15.21;95.76
56863;BME280;42746;49.976;20.182;2022-07-25T01:19:25;98397.72;;;15.23;94.68
56863;BME280;42746;49.976;20.182;2022-07-25T01:21:28;98391.41;;;15.22;94.67
56863;BME280;42746;49.976;20.182;2022-07-25T01:23:29;98391.72;;;15.24;95.04
56863;BME280;42746;49.976;20.182;2022-07-25T01:25:29;98399.25;;;15.24;95.57
56863;BME280;42746;49.976;20.182;2022-07-25T01:27:30;98396.78;;;15.26;95.77
56863;BME280;42746;49.976;20.182;2022-07-25T01:29:31;98403.88;;;15.27;96.41
56863;BME280;42746;49.976;20.182;2022-07-25T01:31:32;98397.72;;;15.23;97.81
56863;BME280;42746;49.976;20.182;2022-07-25T01:33:33;98401.09;;;15.18;98.87
56863;BME280;42746;49.976;20.182;2022-07-25T01:35:34;98389.59;;;15.10;99.26
56863;BME280;42746;49.976;20.182;2022-07-25T01:37:36;98389.28;;;14.99;100.00
56863;BME280;42746;49.976;20.182;2022-07-25T01:39:36;98386.66;;;14.86;100.00
56863;BME280;42746;49.976;20.182;2022-07-25T01:41:37;98383.13;;;14.76;100.00
56863;BME280;42746;49.976;20.182;2022-07-25T01:43:39;98382.63;;;14.68;100.00
56863;BME280;42746;49.976;20.182;2022-07-25T01:45:40;98376.75;;;14.57;100.00
56863;BME280;42746;49.976;20.182;2022-07-25T01:47:41;98374.59;;;14.52;100.00
56863;BME280;42746;49.976;20.182;2022-07-25T01:49:42;98390.53;;;14.48;100.00
56863;BME280;42746;49.976;20.182;2022-07-25T01:51:42;98389.91;;;14.44;100.00
56863;BME280;42746;49.976;20.182;2022-07-25T01:53:45;98387.72;;;14.39;100.00
56863;BME280;42746;49.976;20.182;2022-07-25T01:55:46;98386.22;;;14.38;100.00
56863;BME280;42746;49.976;20.182;2022-07-25T01:57:47;98387.13;;;14.34;100.00
56863;BME280;42746;49.976;20.182;2022-07-25T01:59:48;98376.22;;;14.31;100.00
56863;BME280;42746;49.976;20.182;2022-07-25T02:01:48;98379.41;;;14.29;100.00
56863;BME280;42746;49.976;20.182;2022-07-25T02:03:49;98392.00;;;14.30;100.00
56863;BME280;42746;49.976;20.182;2022-07-25T02:05:50;98382.53;;;14.31;100.00
56863;BME280;42746;49.976;20.182;2022-07-25T02:07:51;98378.22;;;14.30;100.00
56863;BME280;42746;49.976;20.182;2022-07-25T02:09:53;98375.13;;;14.28;100.00
56863;BME280;42746;49.976;20.182;2022-07-25T02:11:54;98375.28;;;14.25;100.00
56863;BME280;42746;49.976;20.182;2022-07-25T02:13:55;98380.94;;;14.21;100.00
56863;BME280;42746;49.976;20.182;2022-07-25T02:15:56;98375.56;;;14.18;100.00
56863;BME280;42746;49.976;20.182;2022-07-25T02:17:57;98376.00;;;14.16;100.00
56863;BME280;42746;49.976;20.182;2022-07-25T02:19:57;98373.84;;;14.11;100.00
56863;BME280;42746;49.976;20.182;2022-07-25T02:21:58;98371.69;;;14.06;100.00
56863;BME280;42746;49.976;20.182;2022-07-25T02:23:59;98374.13;;;14.04;100.00
56863;BME280;42746;49.976;20.182;2022-07-25T02:26:01;98371.06;;;14.02;100.00
56863;BME280;42746;49.976;20.182;2022-07-25T02:28:03;98371.06;;;14.02;100.00
56863;BME280;42746;49.976;20.182;2022-07-25T02:30:05;98372.59;;;14.03;100.00
56863;BME280;42746;49.976;20.182;2022-07-25T02:32:06;98371.06;;;14.02;100.00
56863;BME280;42746;49.976;20.182;2022-07-25T02:34:06;98376.59;;;14.02;100.00
56863;BME280;42746;49.976;20.182;2022-07-25T02:36:09;98376.59;;;14.02;100.00
56863;BME280;42746;49.976;20.182;2022-07-25T02:38:11;98367.06;;;14.03;100.00
56863;BME280;42746;49.976;20.182;2022-07-25T02:40:12;98371.97;;;13.99;100.00
56863;BME280;42746;49.976;20.182;2022-07-25T02:42:14;98374.41;;;13.96;100.00
56863;BME280;42746;49.976;20.182;2022-07-25T02:44:15;98375.31;;;13.93;100.00
56863;BME280;42746;49.976;20.182;2022-07-25T02:46:16;98370.22;;;13.92;100.00
56863;BME280;42746;49.976;20.182;2022-07-25T02:48:17;98371.59;;;13.87;100.00
56863;BME280;42746;49.976;20.182;2022-07-25T02:50:17;98374.03;;;13.85;100.00
56863;BME280;42746;49.976;20.182;2022-07-25T02:52:18;98373.41;;;13.81;100.00
56863;BME280;42746;49.976;20.182;2022-07-25T02:54:19;98378.16;;;13.81;100.00
56863;BME280;42746;49.976;20.182;2022-07-25T02:56:20;98377.84;;;13.79;100.00
56863;BME280;42746;49.976;20.182;2022-07-25T02:58:22;98382.28;;;13.76;100.00
56863;BME280;42746;49.976;20.182;2022-07-25T03:00:23;98370.94;;;13.74;100.00
56863;BME280;42746;49.976;20.182;2022-07-25T03:02:24;98368.16;;;13.74;100.00
56863;BME280;42746;49.976;20.182;2022-07-25T03:04:25;98368.94;;;13.74;100.00
56863;BME280;42746;49.976;20.182;2022-07-25T03:06:26;98371.25;;;13.76;100.00
56863;BME280;42746;49.976;20.182;2022-07-25T03:08:27;98367.25;;;13.77;100.00
56863;BME280;42746;49.976;20.182;2022-07-25T03:10:27;98368.78;;;13.78;100.00
56863;BME280;42746;49.976;20.182;2022-07-25T03:12:28;98371.09;;;13.80;100.00
56863;BME280;42746;49.976;20.182;2022-07-25T03:14:31;98373.72;;;13.83;100.00
56863;BME280;42746;49.976;20.182;2022-07-25T03:16:31;98372.50;;;13.84;100.00
56863;BME280;42746;49.976;20.182;2022-07-25T03:18:32;98377.13;;;13.87;100.00
56863;BME280;42746;49.976;20.182;2022-07-25T03:20:33;98372.22;;;13.91;100.00
56863;BME280;42746;49.976;20.182;2022-07-25T03:22:34;98378.09;;;14.03;100.00
56863;BME280;42746;49.976;20.182;2022-07-25T03:24:35;98381.53;;;14.16;100.00
56863;BME280;42746;49.976;20.182;2022-07-25T03:26:36;98388.19;;;14.28;100.00
56863;BME280;42746;49.976;20.182;2022-07-25T03:28:36;98382.22;;;14.39;100.00
56863;BME280;42746;49.976;20.182;2022-07-25T03:30:39;98379.78;;;14.50;100.00
56863;BME280;42746;49.976;20.182;2022-07-25T03:32:40;98386.00;;;14.63;100.00
56863;BME280;42746;49.976;20.182;2022-07-25T03:34:40;98383.88;;;14.77;100.00
56863;BME280;42746;49.976;20.182;2022-07-25T03:36:41;98391.25;;;14.89;100.00
56863;BME280;42746;49.976;20.182;2022-07-25T03:38:42;98388.03;;;15.09;100.00
56863;BME280;42746;49.976;20.182;2022-07-25T03:40:43;98393.56;;;15.27;100.00
56863;BME280;42746;49.976;20.182;2022-07-25T03:42:44;98399.25;;;15.42;100.00
56863;BME280;42746;49.976;20.182;2022-07-25T03:44:45;98398.63;;;15.57;100.00
56863;BME280;42746;49.976;20.182;2022-07-25T03:46:47;98393.66;;;15.79;100.00
56863;BME280;42746;49.976;20.182;2022-07-25T03:48:48;98390.53;;;16.05;100.00
56863;BME280;42746;49.976;20.182;2022-07-25T03:50:49;98392.25;;;16.26;100.00
56863;BME280;42746;49.976;20.182;2022-07-25T03:52:49;98382.88;;;16.57;100.00
56863;BME280;42746;49.976;20.182;2022-07-25T03:54:50;98387.31;;;16.88;100.00
56863;BME280;42746;49.976;20.182;2022-07-25T03:56:51;98383.41;;;17.19;100.00
56863;BME280;42746;49.976;20.182;2022-07-25T03:58:52;98386.41;;;17.45;99.85
56863;BME280;42746;49.976;20.182;2022-07-25T04:00:53;98390.81;;;17.67;97.32
56863;BME280;42746;49.976;20.182;2022-07-25T04:02:55;98388.94;;;17.88;96.02
56863;BME280;42746;49.976;20.182;2022-07-25T04:04:56;98391.00;;;18.08;94.47
56863;BME280;42746;49.976;20.182;2022-07-25T04:06:57;98396.34;;;18.26;92.25
56863;BME280;42746;49.976;20.182;2022-07-25T04:08:57;98389.63;;;18.33;88.53
56863;BME280;42746;49.976;20.182;2022-07-25T04:10:58;98387.16;;;18.20;86.77
56863;BME280;42746;49.976;20.182;2022-07-25T04:12:59;98384.00;;;18.12;87.64
56863;BME280;42746;49.976;20.182;2022-07-25T04:15:00;98382.19;;;18.09;87.54
56863;BME280;42746;49.976;20.182;2022-07-25T04:17:01;98377.63;;;18.06;89.04
56863;BME280;42746;49.976;20.182;2022-07-25T04:19:04;98382.94;;;18.25;89.87
56863;BME280;42746;49.976;20.182;2022-07-25T04:21:05;98376.38;;;18.43;89.59
56863;BME280;42746;49.976;20.182;2022-07-25T04:23:06;98373.94;;;18.50;88.12
56863;BME280;42746;49.976;20.182;2022-07-25T04:25:07;98374.09;;;18.62;88.55
56863;BME280;42746;49.976;20.182;2022-07-25T04:27:08;98373.91;;;18.86;88.85
56863;BME280;42746;49.976;20.182;2022-07-25T04:29:09;98369.94;;;19.13;87.95
56863;BME280;42746;49.976;20.182;2022-07-25T04:31:10;98375.63;;;19.24;86.87
56863;BME280;42746;49.976;20.182;2022-07-25T04:33:11;98367.56;;;19.26;87.28
56863;BME280;42746;49.976;20.182;2022-07-25T04:35:13;98367.97;;;19.19;87.65
56863;BME280;42746;49.976;20.182;2022-07-25T04:37:14;98370.38;;;19.06;88.08
56863;BME280;42746;49.976;20.182;2022-07-25T04:39:14;98364.53;;;19.04;88.74
56863;BME280;42746;49.976;20.182;2022-07-25T04:41:15;98365.88;;;19.14;88.90
56863;BME280;42746;49.976;20.182;2022-07-25T04:43:16;98354.06;;;19.19;86.92
56863;BME280;42746;49.976;20.182;2022-07-25T04:45:19;98363.53;;;19.27;85.01
56863;BME280;42746;49.976;20.182;2022-07-25T04:47:19;98359.59;;;19.40;82.57
56863;BME280;42746;49.976;20.182;2022-07-25T04:49:20;98353.31;;;19.45;81.36
56863;BME280;42746;49.976;20.182;2022-07-25T04:51:23;98351.34;;;19.51;80.49
56863;BME280;42746;49.976;20.182;2022-07-25T04:53:23;98352.16;;;19.57;80.15
56863;BME280;42746;49.976;20.182;2022-07-25T04:55:24;98358.41;;;19.72;79.37
56863;BME280;42746;49.976;20.182;2022-07-25T04:57:25;98356.06;;;19.97;78.56
56863;BME280;42746;49.976;20.182;2022-07-25T04:59:26;98352.56;;;20.02;78.48
56863;BME280;42746;49.976;20.182;2022-07-25T05:01:27;98350.03;;;20.04;78.07
56863;BME280;42746;49.976;20.182;2022-07-25T05:03:27;98350.03;;;20.04;77.58
56863;BME280;42746;49.976;20.182;2022-07-25T05:05:28;98355.16;;;20.11;75.39
56863;BME280;42746;49.976;20.182;2022-07-25T05:07:31;98350.09;;;20.16;73.50
56863;BME280;42746;49.976;20.182;2022-07-25T05:09:31;98355.28;;;20.34;73.76
56863;BME280;42746;49.976;20.182;2022-07-25T05:11:32;98344.25;;;20.57;72.66
56863;BME280;42746;49.976;20.182;2022-07-25T05:13:33;98338.53;;;20.71;72.58
56863;BME280;42746;49.976;20.182;2022-07-25T05:15:34;98346.97;;;20.88;71.80
56863;BME280;42746;49.976;20.182;2022-07-25T05:17:35;98339.94;;;21.10;71.32
56863;BME280;42746;49.976;20.182;2022-07-25T05:19:36;98335.94;;;21.45;70.32
56863;BME280;42746;49.976;20.182;2022-07-25T05:21:37;98341.28;;;21.82;68.41
56863;BME280;42746;49.976;20.182;2022-07-25T05:23:40;98339.97;;;22.23;65.93
56863;BME280;42746;49.976;20.182;2022-07-25T05:25:40;98336.69;;;22.24;62.75
56863;BME280;42746;49.976;20.182;2022-07-25T05:27:41;98339.13;;;22.68;63.74
56863;BME280;42746;49.976;20.182;2022-07-25T05:29:42;98335.78;;;23.28;61.20
56863;BME280;42746;49.976;20.182;2022-07-25T05:31:43;98337.09;;;24.23;58.96
56863;BME280;42746;49.976;20.182;2022-07-25T05:33:43;98334.28;;;25.10;56.54
56863;BME280;42746;49.976;20.182;2022-07-25T05:35:44;98325.84;;;26.26;52.01
56863;BME280;42746;49.976;20.182;2022-07-25T05:37:45;98322.13;;;27.46;47.66
56863;BME280;42746;49.976;20.182;2022-07-25T05:39:47;98327.50;;;29.45;44.87
56863;BME280;42746;49.976;20.182;2022-07-25T05:41:49;98322.94;;;31.79;39.84
56863;BME280;42746;49.976;20.182;2022-07-25T05:43:50;98318.63;;;33.35;37.37
56863;BME280;42746;49.976;20.182;2022-07-25T05:45:51;98316.47;;;32.81;35.02
56863;BME280;42746;49.976;20.182;2022-07-25T05:47:51;98323.69;;;30.66;35.62
56863;BME280;42746;49.976;20.182;2022-07-25T05:49:52;98332.31;;;28.41;37.79
56863;BME280;42746;49.976;20.182;2022-07-25T05:51:53;98331.91;;;26.57;40.14
56863;BME280;42746;49.976;20.182;2022-07-25T05:53:54;98342.22;;;25.31;41.85
56863;BME280;42746;49.976;20.182;2022-07-25T05:55:56;98339.06;;;24.28;44.18
56863;BME280;42746;49.976;20.182;2022-07-25T05:57:57;98340.44;;;23.55;47.12
56863;BME280;42746;49.976;20.182;2022-07-25T05:59:58;98338.72;;;23.05;47.20
56863;BME280;42746;49.976;20.182;2022-07-25T06:02:00;98347.50;;;22.73;48.18
56863;BME280;42746;49.976;20.182;2022-07-25T06:04:01;98343.00;;;22.48;49.64
56863;BME280;42746;49.976;20.182;2022-07-25T06:06:02;98344.09;;;22.28;49.71
56863;BME280;42746;49.976;20.182;2022-07-25T06:08:03;98344.09;;;22.11;51.21
56863;BME280;42746;49.976;20.182;2022-07-25T06:10:05;98339.75;;;22.10;52.16
56863;BME280;42746;49.976;20.182;2022-07-25T06:12:07;98339.53;;;21.74;56.07
56863;BME280;42746;49.976;20.182;2022-07-25T06:14:08;98331.84;;;21.35;56.07
56863;BME280;42746;49.976;20.182;2022-07-25T06:16:08;98338.88;;;21.02;57.12
56863;BME280;42746;49.976;20.182;2022-07-25T06:18:09;98342.69;;;20.93;57.80
56863;BME280;42746;49.976;20.182;2022-07-25T06:20:11;98334.28;;;20.87;57.84
56863;BME280;42746;49.976;20.182;2022-07-25T06:22:11;98337.59;;;20.91;61.74
56863;BME280;42746;49.976;20.182;2022-07-25T06:24:12;98332.53;;;20.96;64.08
56863;BME280;42746;49.976;20.182;2022-07-25T06:26:13;98337.09;;;20.93;59.34
56863;BME280;42746;49.976;20.182;2022-07-25T06:28:15;98341.72;;;21.19;61.02
56863;BME280;42746;49.976;20.182;2022-07-25T06:30:16;98321.47;;;21.46;61.42
56863;BME280;42746;49.976;20.182;2022-07-25T06:32:17;98331.41;;;21.70;58.99
56863;BME280;42746;49.976;20.182;2022-07-25T06:34:18;98325.81;;;21.87;58.04
56863;BME280;42746;49.976;20.182;2022-07-25T06:36:18;98323.75;;;22.04;59.48
56863;BME280;42746;49.976;20.182;2022-07-25T06:38:19;98319.19;;;22.13;57.90
56863;BME280;42746;49.976;20.182;2022-07-25T06:40:20;98326.81;;;21.95;57.62
56863;BME280;42746;49.976;20.182;2022-07-25T06:42:21;98318.44;;;21.56;57.32
56863;BME280;42746;49.976;20.182;2022-07-25T06:44:23;98318.44;;;21.50;58.30
56863;BME280;42746;49.976;20.182;2022-07-25T06:46:24;98320.47;;;21.49;59.06
56863;BME280;42746;49.976;20.182;2022-07-25T06:48:25;98310.06;;;21.50;58.26
56863;BME280;42746;49.976;20.182;2022-07-25T06:50:25;98317.19;;;21.51;58.81
56863;BME280;42746;49.976;20.182;2022-07-25T06:52:26;98317.94;;;21.68;60.89
56863;BME280;42746;49.976;20.182;2022-07-25T06:54:27;98315.63;;;21.84;59.32
56863;BME280;42746;49.976;20.182;2022-07-25T06:56:28;98313.34;;;21.88;56.94
56863;BME280;42746;49.976;20.182;2022-07-25T06:58:29;98308.78;;;21.91;54.89
56863;BME280;42746;49.976;20.182;2022-07-25T07:00:31;98308.00;;;22.01;55.79
56863;BME280;42746;49.976;20.182;2022-07-25T07:02:32;98298.31;;;22.14;55.53
56863;BME280;42746;49.976;20.182;2022-07-25T07:04:32;98298.84;;;22.29;56.32
56863;BME280;42746;49.976;20.182;2022-07-25T07:06:33;98305.38;;;22.49;55.55
56863;BME280;42746;49.976;20.182;2022-07-25T07:08:34;98294.72;;;22.41;54.84
56863;BME280;42746;49.976;20.182;2022-07-25T07:10:35;98289.34;;;22.49;55.39
56863;BME280;42746;49.976;20.182;2022-07-25T07:12:36;98289.81;;;22.53;55.78
56863;BME280;42746;49.976;20.182;2022-07-25T07:14:37;98282.78;;;22.41;57.89
56863;BME280;42746;49.976;20.182;2022-07-25T07:16:39;98281.50;;;22.36;55.48
56863;BME280;42746;49.976;20.182;2022-07-25T07:18:40;98279.47;;;22.42;56.45
56863;BME280;42746;49.976;20.182;2022-07-25T07:20:41;98279.47;;;22.42;56.04
56863;BME280;42746;49.976;20.182;2022-07-25T07:22:45;98276.91;;;22.44;56.60
56863;BME280;42746;49.976;20.182;2022-07-25T07:24:46;98285.53;;;22.47;54.90
56863;BME280;42746;49.976;20.182;2022-07-25T07:26:47;98271.78;;;22.54;55.01
56863;BME280;42746;49.976;20.182;2022-07-25T07:28:48;98269.66;;;22.72;55.50
56863;BME280;42746;49.976;20.182;2022-07-25T07:30:49;98273.72;;;22.76;57.43
56863;BME280;42746;49.976;20.182;2022-07-25T07:32:51;98285.84;;;22.90;58.40
56863;BME280;42746;49.976;20.182;2022-07-25T07:34:52;98275.63;;;23.04;58.09
56863;BME280;42746;49.976;20.182;2022-07-25T07:36:52;98275.47;;;23.27;57.61
56863;BME280;42746;49.976;20.182;2022-07-25T07:38:53;98271.28;;;23.39;54.63
56863;BME280;42746;49.976;20.182;2022-07-25T07:40:54;98271.78;;;23.43;55.48
56863;BME280;42746;49.976;20.182;2022-07-25T07:42:55;98262.84;;;23.45;54.23
56863;BME280;42746;49.976;20.182;2022-07-25T07:44:56;98268.66;;;23.52;51.94
56863;BME280;42746;49.976;20.182;2022-07-25T07:46:57;98270.41;;;23.55;50.62
56863;BME280;42746;49.976;20.182;2022-07-25T07:48:59;98271.47;;;23.52;48.87
56863;BME280;42746;49.976;20.182;2022-07-25T07:51:00;98269.78;;;23.38;49.92
56863;BME280;42746;49.976;20.182;2022-07-25T07:53:01;98259.59;;;23.35;51.71
56863;BME280;42746;49.976;20.182;2022-07-25T07:55:03;98266.41;;;23.45;51.56
56863;BME280;42746;49.976;20.182;2022-07-25T07:57:04;98266.31;;;23.56;52.19
56863;BME280;42746;49.976;20.182;2022-07-25T07:59:05;98272.34;;;23.66;51.85
56863;BME280;42746;49.976;20.182;2022-07-25T08:01:06;98272.53;;;23.74;51.96
56863;BME280;42746;49.976;20.182;2022-07-25T08:03:07;98266.84;;;23.85;50.54
56863;BME280;42746;49.976;20.182;2022-07-25T08:05:10;98271.59;;;23.96;50.21
56863;BME280;42746;49.976;20.182;2022-07-25T08:07:10;98259.50;;;24.07;48.95
56863;BME280;42746;49.976;20.182;2022-07-25T08:09:11;98263.13;;;24.02;49.41
56863;BME280;42746;49.976;20.182;2022-07-25T08:11:12;98267.03;;;23.93;46.58
56863;BME280;42746;49.976;20.182;2022-07-25T08:13:14;98271.41;;;23.88;47.37
56863;BME280;42746;49.976;20.182;2022-07-25T08:15:16;98264.75;;;23.91;47.55
56863;BME280;42746;49.976;20.182;2022-07-25T08:17:17;98260.53;;;24.04;48.13
56863;BME280;42746;49.976;20.182;2022-07-25T08:19:18;98259.97;;;24.11;46.01
56863;BME280;42746;49.976;20.182;2022-07-25T08:21:20;98255.41;;;24.08;46.87
56863;BME280;42746;49.976;20.182;2022-07-25T08:23:21;98260.88;;;24.19;47.03
56863;BME280;42746;49.976;20.182;2022-07-25T08:25:22;98265.91;;;24.26;48.82
56863;BME280;42746;49.976;20.182;2022-07-25T08:27:23;98259.88;;;24.41;47.73
56863;BME280;42746;49.976;20.182;2022-07-25T08:29:24;98254.91;;;24.53;47.28
56863;BME280;42746;49.976;20.182;2022-07-25T08:31:25;98261.88;;;24.65;46.53
56863;BME280;42746;49.976;20.182;2022-07-25T08:33:26;98261.28;;;24.72;46.28
56863;BME280;42746;49.976;20.182;2022-07-25T08:35:27;98262.03;;;24.73;45.98
56863;BME280;42746;49.976;20.182;2022-07-25T08:37:30;98261.97;;;24.60;46.43
56863;BME280;42746;49.976;20.182;2022-07-25T08:39:30;98263.69;;;24.44;45.28
56863;BME280;42746;49.976;20.182;2022-07-25T08:41:32;98257.59;;;24.39;45.82
56863;BME280;42746;49.976;20.182;2022-07-25T08:43:35;98257.59;;;24.39;45.00
56863;BME280;42746;49.976;20.182;2022-07-25T08:45:40;98260.66;;;24.42;43.63
56863;BME280;42746;49.976;20.182;2022-07-25T08:47:43;98256.59;;;24.37;43.61
56863;BME280;42746;49.976;20.182;2022-07-25T08:49:44;98254.09;;;24.33;44.56
56863;BME280;42746;49.976;20.182;2022-07-25T08:51:46;98248.78;;;24.49;45.34
56863;BME280;42746;49.976;20.182;2022-07-25T08:53:49;98249.91;;;24.65;45.45
56863;BME280;42746;49.976;20.182;2022-07-25T08:55:50;98255.38;;;24.76;43.22
56863;BME280;42746;49.976;20.182;2022-07-25T08:57:52;98242.47;;;24.86;44.74
56863;BME280;42746;49.976;20.182;2022-07-25T08:59:56;98241.69;;;25.05;43.01
56863;BME280;42746;49.976;20.182;2022-07-25T09:01:57;98250.19;;;25.18;42.53
56863;BME280;42746;49.976;20.182;2022-07-25T09:03:58;98240.00;;;25.34;41.33
56863;BME280;42746;49.976;20.182;2022-07-25T09:05:58;98238.94;;;25.37;41.88
56863;BME280;42746;49.976;20.182;2022-07-25T09:08:06;98240.44;;;25.38;40.85
56863;BME280;42746;49.976;20.182;2022-07-25T09:10:14;98245.16;;;25.30;40.52
56863;BME280;42746;49.976;20.182;2022-07-25T09:12:15;98246.22;;;25.27;43.30
56863;BME280;42746;49.976;20.182;2022-07-25T09:14:16;98233.53;;;25.39;41.67
56863;BME280;42746;49.976;20.182;2022-07-25T09:16:27;98237.84;;;25.40;40.64
56863;BME280;42746;49.976;20.182;2022-07-25T09:18:28;98237.41;;;25.36;40.00
56863;BME280;42746;49.976;20.182;2022-07-25T09:20:38;98230.41;;;25.43;40.43
56863;BME280;42746;49.976;20.182;2022-07-25T09:22:42;98226.88;;;25.56;40.74
56863;BME280;42746;49.976;20.182;2022-07-25T09:24:44;98233.78;;;25.68;40.41
56863;BME280;42746;49.976;20.182;2022-07-25T09:26:48;98236.19;;;25.77;40.05
56863;BME280;42746;49.976;20.182;2022-07-25T09:28:50;98229.50;;;25.80;40.64
56863;BME280;42746;49.976;20.182;2022-07-25T09:30:53;98232.94;;;25.86;39.40
56863;BME280;42746;49.976;20.182;2022-07-25T09:33:00;98232.09;;;25.78;37.35
56863;BME280;42746;49.976;20.182;2022-07-25T09:35:01;98222.97;;;25.72;40.27
56863;BME280;42746;49.976;20.182;2022-07-25T09:37:04;98219.94;;;25.70;39.45
56863;BME280;42746;49.976;20.182;2022-07-25T09:39:05;98220.31;;;25.80;40.30
56863;BME280;42746;49.976;20.182;2022-07-25T09:41:06;98217.41;;;25.99;40.39
56863;BME280;42746;49.976;20.182;2022-07-25T09:43:08;98208.31;;;26.19;40.74
56863;BME280;42746;49.976;20.182;2022-07-25T09:45:11;98208.19;;;26.38;41.00
56863;BME280;42746;49.976;20.182;2022-07-25T09:47:13;98209.59;;;26.45;39.60
56863;BME280;42746;49.976;20.182;2022-07-25T09:49:14;98205.25;;;26.44;38.24
56863;BME280;42746;49.976;20.182;2022-07-25T09:51:15;98212.16;;;26.43;38.94
56863;BME280;42746;49.976;20.182;2022-07-25T09:53:16;98214.34;;;26.37;40.17
56863;BME280;42746;49.976;20.182;2022-07-25T09:55:19;98210.28;;;26.24;38.89
56863;BME280;42746;49.976;20.182;2022-07-25T09:57:20;98205.09;;;26.15;38.84
56863;BME280;42746;49.976;20.182;2022-07-25T09:59:23;98208.97;;;26.12;38.50
56863;BME280;42746;49.976;20.182;2022-07-25T10:01:27;98210.50;;;26.13;39.80
56863;BME280;42746;49.976;20.182;2022-07-25T10:03:42;98196.09;;;26.03;41.23
56863;BME280;42746;49.976;20.182;2022-07-25T10:06:01;98200.66;;;26.06;41.44
56863;BME280;42746;49.976;20.182;2022-07-25T10:08:07;98192.72;;;26.18;41.18
56863;BME280;42746;49.976;20.182;2022-07-25T10:10:08;98191.09;;;26.23;40.54
56863;BME280;42746;49.976;20.182;2022-07-25T10:12:20;98193.47;;;26.32;40.41
56863;BME280;42746;49.976;20.182;2022-07-25T10:14:23;98186.84;;;26.43;38.49
56863;BME280;42746;49.976;20.182;2022-07-25T10:16:25;98180.25;;;26.40;38.62
56863;BME280;42746;49.976;20.182;2022-07-25T10:18:27;98186.13;;;26.29;35.62
56863;BME280;42746;49.976;20.182;2022-07-25T10:20:29;98186.03;;;26.08;34.28
56863;BME280;42746;49.976;20.182;2022-07-25T10:22:40;98177.38;;;26.06;35.71
56863;BME280;42746;49.976;20.182;2022-07-25T10:24:43;98175.88;;;26.05;36.43
56863;BME280;42746;49.976;20.182;2022-07-25T10:26:50;98172.59;;;25.87;34.81
56863;BME280;42746;49.976;20.182;2022-07-25T10:28:52;98169.09;;;25.41;37.33
56863;BME280;42746;49.976;20.182;2022-07-25T10:30:57;98168.25;;;25.46;41.04
56863;BME280;42746;49.976;20.182;2022-07-25T10:32:58;98167.84;;;25.69;38.87